createdAt,value
2018-10-07T00:02:06.256Z,1.67
2018-10-07T00:04:35.520Z,1.33
2018-10-07T00:07:04.792Z,1.50
2018-10-07T00:09:34.777Z,1.70
2018-10-07T00:12:04.044Z,1.10
2018-10-07T00:14:33.297Z,1.70
2018-10-07T00:17:02.529Z,1.40
2018-10-07T00:19:31.773Z,1.47
2018-10-07T00:22:01.060Z,1.10
2018-10-07T00:24:30.272Z,1.30
2018-10-07T00:26:59.521Z,1.40
2018-10-07T00:29:28.778Z,1.30
2018-10-07T00:32:03.991Z,1.30
2018-10-07T00:34:33.282Z,1.23
2018-10-07T00:37:02.495Z,1.37
2018-10-07T00:39:31.783Z,1.53
2018-10-07T00:42:01.139Z,1.33
2018-10-07T00:44:30.392Z,1.23
2018-10-07T00:46:59.633Z,1.30
2018-10-07T00:49:29.069Z,1.57
2018-10-07T00:51:58.381Z,1.70
2018-10-07T00:54:27.780Z,1.80
2018-10-07T00:56:57.039Z,2.00
2018-10-07T00:59:26.407Z,1.53
2018-10-07T01:01:55.696Z,1.43
2018-10-07T01:04:25.681Z,1.90
2018-10-07T01:06:54.933Z,1.67
2018-10-07T01:09:24.137Z,1.70
2018-10-07T01:11:53.382Z,1.50
2018-10-07T01:14:22.620Z,1.67
2018-10-07T01:16:51.873Z,1.67
2018-10-07T01:19:21.199Z,1.97
2018-10-07T01:21:50.544Z,1.77
2018-10-07T01:24:19.955Z,1.63
2018-10-07T01:26:49.216Z,1.30
2018-10-07T01:29:18.446Z,1.30
2018-10-07T01:31:47.731Z,1.47
2018-10-07T01:34:17.005Z,1.90
2018-10-07T01:36:46.239Z,1.67
2018-10-07T01:39:15.566Z,1.77
2018-10-07T01:41:44.799Z,1.40
2018-10-07T01:44:14.036Z,1.53
2018-10-07T01:46:43.256Z,1.40
2018-10-07T01:49:12.501Z,1.60
2018-10-07T01:51:41.743Z,1.30
2018-10-07T01:54:10.986Z,1.80
2018-10-07T01:56:40.209Z,1.30
2018-10-07T01:59:09.507Z,1.40
2018-10-07T02:01:38.697Z,1.50
2018-10-07T02:04:07.912Z,1.30
2018-10-07T02:06:37.200Z,1.50
2018-10-07T02:09:08.829Z,1.33
2018-10-07T02:11:38.108Z,1.40
2018-10-07T02:14:07.354Z,1.50
2018-10-07T02:16:36.597Z,1.60
2018-10-07T02:19:05.805Z,1.47
2018-10-07T02:21:35.052Z,1.50
2018-10-07T02:24:04.453Z,1.50
2018-10-07T02:26:33.723Z,1.63
2018-10-07T02:29:02.955Z,1.30
2018-10-07T02:31:32.182Z,1.20
2018-10-07T02:34:01.428Z,1.30
2018-10-07T02:36:30.670Z,1.80
2018-10-07T02:38:59.951Z,1.50
2018-10-07T02:41:29.155Z,1.40
2018-10-07T02:43:58.388Z,1.50
2018-10-07T02:46:27.621Z,1.73
2018-10-07T02:48:56.860Z,1.53
2018-10-07T02:51:26.929Z,1.50
2018-10-07T02:53:56.251Z,1.57
2018-10-07T02:56:25.564Z,1.43
2018-10-07T02:58:54.856Z,1.50
2018-10-07T03:01:24.129Z,1.50
2018-10-07T03:03:53.459Z,1.60
2018-10-07T03:06:22.818Z,1.70
2018-10-07T03:08:52.064Z,1.90
2018-10-07T03:11:21.291Z,1.50
2018-10-07T03:13:50.597Z,1.93
2018-10-07T03:16:19.844Z,1.60
2018-10-07T03:18:49.051Z,1.87
2018-10-07T03:21:18.377Z,1.57
2018-10-07T03:23:47.631Z,1.60
2018-10-07T03:26:16.897Z,1.50
2018-10-07T03:28:46.173Z,1.50
2018-10-07T03:31:15.982Z,1.90
2018-10-07T03:33:45.571Z,1.50
2018-10-07T03:36:15.493Z,1.70
2018-10-07T03:38:45.096Z,1.60
2018-10-07T03:41:14.376Z,1.50
2018-10-07T03:43:43.613Z,1.50
2018-10-07T03:46:12.814Z,1.60
2018-10-07T03:48:42.041Z,1.60
2018-10-07T03:51:11.297Z,1.50
2018-10-07T03:53:40.509Z,1.57
2018-10-07T03:56:09.791Z,1.60
2018-10-07T03:58:39.024Z,1.93
2018-10-07T04:01:09.013Z,2.10
2018-10-07T04:03:38.327Z,1.77
2018-10-07T04:06:07.575Z,1.60
2018-10-07T04:08:36.799Z,1.53
2018-10-07T04:11:06.025Z,1.63
2018-10-07T04:13:35.401Z,2.10
2018-10-07T04:16:04.640Z,1.70
2018-10-07T04:18:34.128Z,2.10
2018-10-07T04:21:03.388Z,1.90
2018-10-07T04:23:33.210Z,1.90
2018-10-07T04:26:03.470Z,1.63
2018-10-07T04:28:32.673Z,1.60
2018-10-07T04:31:04.751Z,1.60
2018-10-07T04:33:34.034Z,1.70
2018-10-07T04:36:03.341Z,1.57
2018-10-07T04:38:32.533Z,1.30
2018-10-07T04:41:01.768Z,1.73
2018-10-07T04:43:31.028Z,1.60
2018-10-07T04:46:00.247Z,1.70
2018-10-07T04:48:29.540Z,1.63
2018-10-07T04:50:59.441Z,1.17
2018-10-07T04:53:28.685Z,1.20
2018-10-07T04:55:57.952Z,1.47
2018-10-07T04:58:27.186Z,1.27
2018-10-07T05:00:56.448Z,1.20
2018-10-07T05:03:25.945Z,1.40
2018-10-07T05:05:55.322Z,1.23
2018-10-07T05:08:25.018Z,1.30
2018-10-07T05:10:55.719Z,1.43
2018-10-07T05:13:29.467Z,1.30
2018-10-07T05:16:00.366Z,1.47
2018-10-07T05:18:29.693Z,1.50
2018-10-07T05:20:58.996Z,1.20
2018-10-07T05:23:28.983Z,1.40
2018-10-07T05:25:58.244Z,1.30
2018-10-07T05:28:27.513Z,1.40
2018-10-07T05:30:56.776Z,1.47
2018-10-07T05:33:26.162Z,1.40
2018-10-07T05:35:55.319Z,1.30
2018-10-07T05:38:24.537Z,1.17
2018-10-07T05:40:53.815Z,1.30
2018-10-07T05:43:23.045Z,1.50
2018-10-07T05:45:52.316Z,1.40
2018-10-07T05:48:21.648Z,1.57
2018-10-07T05:50:50.991Z,1.60
2018-10-07T05:53:20.230Z,1.60
2018-10-07T05:55:49.622Z,1.60
2018-10-07T05:58:19.045Z,1.50
2018-10-07T06:00:48.336Z,1.80
2018-10-07T06:03:28.418Z,1.60
2018-10-07T06:05:57.950Z,1.53
2018-10-07T06:08:28.321Z,1.80
2018-10-07T06:10:57.584Z,1.60
2018-10-07T06:13:26.811Z,1.40
2018-10-07T06:15:56.127Z,1.63
2018-10-07T06:18:25.404Z,1.23
2018-10-07T06:20:54.679Z,1.40
2018-10-07T06:23:23.984Z,1.47
2018-10-07T06:25:53.280Z,1.67
2018-10-07T06:28:22.573Z,1.33
2018-10-07T06:30:51.835Z,1.30
2018-10-07T06:33:21.081Z,1.50
2018-10-07T06:35:50.359Z,1.20
2018-10-07T06:38:19.687Z,1.60
2018-10-07T06:40:48.956Z,1.50
2018-10-07T06:43:18.972Z,1.90
2018-10-07T06:45:48.301Z,1.20
2018-10-07T06:48:18.160Z,1.37
2018-10-07T06:50:47.418Z,1.57
2018-10-07T06:53:17.232Z,1.63
2018-10-07T06:55:46.480Z,1.50
2018-10-07T06:58:15.720Z,1.40
2018-10-07T07:00:45.044Z,1.23
2018-10-07T07:03:14.313Z,1.43
2018-10-07T07:05:43.646Z,1.40
2018-10-07T07:08:12.871Z,1.30
2018-10-07T07:10:42.126Z,2.97
2018-10-07T07:13:11.373Z,1.70
2018-10-07T07:15:40.616Z,2.17
2018-10-07T07:18:09.884Z,1.60
2018-10-07T07:20:39.126Z,1.30
2018-10-07T07:23:08.373Z,1.60
2018-10-07T07:25:37.607Z,1.53
2018-10-07T07:28:07.705Z,1.60
2018-10-07T07:30:36.972Z,1.30
2018-10-07T07:33:06.192Z,1.30
2018-10-07T07:35:35.445Z,1.30
2018-10-07T07:38:04.687Z,1.23
2018-10-07T07:40:33.931Z,1.40
2018-10-07T07:43:03.258Z,1.50
2018-10-07T07:45:32.486Z,1.57
2018-10-07T07:48:01.824Z,1.40
2018-10-07T07:50:31.085Z,1.63
2018-10-07T07:53:01.046Z,1.40
2018-10-07T07:55:30.299Z,1.80
2018-10-07T07:57:59.677Z,1.27
2018-10-07T08:00:28.925Z,1.53
2018-10-07T08:02:58.159Z,1.60
2018-10-07T08:05:27.392Z,1.50
2018-10-07T08:07:56.676Z,1.57
2018-10-07T08:10:25.939Z,1.50
2018-10-07T08:12:55.295Z,1.40
2018-10-07T08:15:24.545Z,1.43
2018-10-07T08:17:53.844Z,1.40
2018-10-07T08:20:23.116Z,1.50
2018-10-07T08:22:52.482Z,1.40
2018-10-07T08:25:21.756Z,1.47
2018-10-07T08:27:51.005Z,1.30
2018-10-07T08:30:20.255Z,1.53
2018-10-07T08:32:49.525Z,1.37
2018-10-07T08:35:18.796Z,1.30
2018-10-07T08:37:47.980Z,1.50
2018-10-07T08:40:17.856Z,1.50
2018-10-07T08:42:47.197Z,1.57
2018-10-07T08:45:16.452Z,1.60
2018-10-07T08:47:45.739Z,2.20
2018-10-07T08:50:14.987Z,2.10
2018-10-07T08:52:44.223Z,1.87
2018-10-07T08:55:13.469Z,1.67
2018-10-07T08:57:42.691Z,1.80
2018-10-07T09:00:11.954Z,2.00
2018-10-07T09:02:41.188Z,2.13
2018-10-07T09:05:10.441Z,1.90
2018-10-07T09:07:39.708Z,2.03
2018-10-07T09:10:09.720Z,1.80
2018-10-07T09:12:38.948Z,1.73
2018-10-07T09:15:08.303Z,1.60
2018-10-07T09:17:37.571Z,1.97
2018-10-07T09:20:07.031Z,1.60
2018-10-07T09:22:36.991Z,1.67
2018-10-07T09:25:06.643Z,1.80
2018-10-07T09:27:35.959Z,1.80
2018-10-07T09:30:05.896Z,1.60
2018-10-07T09:32:35.776Z,1.60
2018-10-07T09:35:04.990Z,1.60
2018-10-07T09:37:34.258Z,1.50
2018-10-07T09:40:03.545Z,1.57
2018-10-07T09:42:33.412Z,1.60
2018-10-07T09:45:02.746Z,1.97
2018-10-07T09:47:32.359Z,1.73
2018-10-07T09:50:01.999Z,1.70
2018-10-07T09:52:31.296Z,1.70
2018-10-07T09:55:00.522Z,1.70
2018-10-07T09:57:29.925Z,1.50
2018-10-07T09:59:59.177Z,1.87
2018-10-07T10:02:28.436Z,1.67
2018-10-07T10:04:57.696Z,1.67
2018-10-07T10:07:26.994Z,1.90
2018-10-07T10:09:56.868Z,1.57
2018-10-07T10:12:26.177Z,1.60
2018-10-07T10:14:55.414Z,2.03
2018-10-07T10:17:24.849Z,1.70
2018-10-07T10:20:10.152Z,1.60
2018-10-07T10:22:52.413Z,1.70
2018-10-07T10:25:33.844Z,1.83
2018-10-07T10:28:09.924Z,1.70
2018-10-07T10:31:20.596Z,1.60
2018-10-07T10:33:57.396Z,1.90
2018-10-07T10:36:36.872Z,2.00
2018-10-07T10:40:13.175Z,1.60
2018-10-07T10:42:46.340Z,1.43
2018-10-07T10:45:21.845Z,1.57
2018-10-07T10:47:53.346Z,1.70
2018-10-07T10:50:32.783Z,1.47
2018-10-07T10:54:13.221Z,1.90
2018-10-07T10:56:48.897Z,1.50
2018-10-07T10:59:31.332Z,1.60
2018-10-07T11:04:15.384Z,1.90
2018-10-07T11:06:55.871Z,1.53
2018-10-07T11:11:39.663Z,1.80
2018-10-07T11:14:33.078Z,1.70
2018-10-07T11:17:12.406Z,1.53
2018-10-07T11:19:50.400Z,1.40
2018-10-07T11:22:26.397Z,1.43
2018-10-07T11:25:15.033Z,1.87
2018-10-07T11:27:54.440Z,1.60
2018-10-07T11:30:33.492Z,1.50
2018-10-07T11:33:12.934Z,1.73
2018-10-07T11:36:20.085Z,1.80
2018-10-07T11:39:28.836Z,1.50
2018-10-07T11:42:11.066Z,2.17
2018-10-07T11:44:53.091Z,1.53
2018-10-07T11:47:31.663Z,1.60
2018-10-07T11:51:09.808Z,1.60
2018-10-07T11:53:44.285Z,1.70
2018-10-07T11:56:13.520Z,1.43
2018-10-07T11:58:42.791Z,1.37
2018-10-07T12:01:12.057Z,1.60
2018-10-07T12:03:41.293Z,1.73
2018-10-07T12:06:10.532Z,1.30
2018-10-07T12:08:39.762Z,1.50
2018-10-07T12:11:09.125Z,1.70
2018-10-07T12:13:38.668Z,1.50
2018-10-07T12:16:08.100Z,1.90
2018-10-07T12:18:37.418Z,1.60
2018-10-07T12:21:06.816Z,1.80
2018-10-07T12:23:37.040Z,1.50
2018-10-07T12:26:07.453Z,1.40
2018-10-07T12:28:36.721Z,1.30
2018-10-07T12:31:06.457Z,1.57
2018-10-07T12:33:35.728Z,1.50
2018-10-07T12:36:05.447Z,1.50
2018-10-07T12:38:35.116Z,1.40
2018-10-07T12:41:04.384Z,1.30
2018-10-07T12:43:33.656Z,1.20
2018-10-07T12:46:02.892Z,1.27
2018-10-07T12:48:32.138Z,1.30
2018-10-07T12:51:01.371Z,1.53
2018-10-07T12:53:30.620Z,1.50
2018-10-07T12:55:59.909Z,1.50
2018-10-07T12:58:29.162Z,1.67
2018-10-07T13:00:58.540Z,1.50
2018-10-07T13:03:28.585Z,1.50
2018-10-07T13:05:57.823Z,1.37
2018-10-07T13:08:27.099Z,1.43
2018-10-07T13:10:56.368Z,1.33
2018-10-07T13:13:25.606Z,1.33
2018-10-07T13:15:54.853Z,1.40
2018-10-07T13:18:24.644Z,1.27
2018-10-07T13:20:54.185Z,1.40
2018-10-07T13:23:23.445Z,1.37
2018-10-07T13:25:53.017Z,1.57
2018-10-07T13:28:22.248Z,1.50
2018-10-07T13:30:51.584Z,1.60
2018-10-07T13:33:20.839Z,1.73
2018-10-07T13:35:50.293Z,1.80
2018-10-07T13:38:20.405Z,1.37
2018-10-07T13:40:49.666Z,1.30
2018-10-07T13:43:18.927Z,1.43
2018-10-07T13:45:48.173Z,1.40
2018-10-07T13:48:17.412Z,1.30
2018-10-07T13:50:46.679Z,1.33
2018-10-07T13:53:16.035Z,1.80
2018-10-07T13:55:45.253Z,1.30
2018-10-07T13:58:14.561Z,1.40
2018-10-07T14:00:44.035Z,1.23
2018-10-07T14:03:13.272Z,1.37
2018-10-07T14:05:42.501Z,1.23
2018-10-07T14:08:11.785Z,1.10
2018-10-07T14:10:41.048Z,1.20
2018-10-07T14:13:10.345Z,1.90
2018-10-07T14:15:39.747Z,1.40
2018-10-07T14:18:09.069Z,1.30
2018-10-07T14:20:38.385Z,1.70
2018-10-07T14:23:07.748Z,1.20
2018-10-07T14:25:37.019Z,1.47
2018-10-07T14:28:06.384Z,1.40
2018-10-07T14:30:35.697Z,1.40
2018-10-07T14:33:05.021Z,1.40
2018-10-07T14:35:34.385Z,1.50
2018-10-07T14:38:03.668Z,1.30
2018-10-07T14:40:32.989Z,1.30
2018-10-07T14:43:02.241Z,1.63
2018-10-07T14:45:31.851Z,1.90
2018-10-07T14:48:01.095Z,1.80
2018-10-07T14:50:30.434Z,1.60
2018-10-07T14:52:59.683Z,1.50
2018-10-07T14:55:28.995Z,1.50
2018-10-07T14:57:58.372Z,1.50
2018-10-07T15:00:27.617Z,1.50
2018-10-07T15:02:56.992Z,1.53
2018-10-07T15:05:26.272Z,1.80
2018-10-07T15:07:55.617Z,1.27
2018-10-07T15:10:25.029Z,1.27
2018-10-07T15:12:54.337Z,1.50
2018-10-07T15:15:23.590Z,1.40
2018-10-07T15:17:52.800Z,1.50
2018-10-07T15:20:22.130Z,1.33
2018-10-07T15:22:51.531Z,1.33
2018-10-07T15:25:20.881Z,1.20
2018-10-07T15:27:50.148Z,1.67
2018-10-07T15:30:20.172Z,1.43
2018-10-07T15:32:49.525Z,1.40
2018-10-07T15:35:18.949Z,1.60
2018-10-07T15:37:48.231Z,1.43
2018-10-07T15:40:17.653Z,1.30
2018-10-07T15:42:46.943Z,1.30
2018-10-07T15:45:16.466Z,1.53
2018-10-07T15:47:46.290Z,1.63
2018-10-07T15:50:15.477Z,1.37
2018-10-07T15:52:45.005Z,1.20
2018-10-07T15:55:14.525Z,1.40
2018-10-07T15:57:44.036Z,1.30
2018-10-07T16:00:13.490Z,1.60
2018-10-07T16:02:44.001Z,1.20
2018-10-07T16:05:13.264Z,1.60
2018-10-07T16:07:42.608Z,1.27
2018-10-07T16:10:11.869Z,1.33
2018-10-07T16:12:41.541Z,1.40
2018-10-07T16:15:11.041Z,1.20
2018-10-07T16:17:40.312Z,1.40
2018-10-07T16:20:09.562Z,1.27
2018-10-07T16:22:38.871Z,1.40
2018-10-07T16:25:08.355Z,1.30
2018-10-07T16:27:38.439Z,1.47
2018-10-07T16:30:07.681Z,1.50
2018-10-07T16:32:36.995Z,1.30
2018-10-07T16:35:06.289Z,1.57
2018-10-07T16:37:36.081Z,1.80
2018-10-07T16:40:05.355Z,1.90
2018-10-07T16:42:34.617Z,1.90
2018-10-07T16:45:04.208Z,1.67
2018-10-07T16:47:34.309Z,3.00
2018-10-07T16:50:03.534Z,3.20
2018-10-07T16:52:33.443Z,2.20
2018-10-07T16:55:02.686Z,2.10
2018-10-07T16:57:33.096Z,2.30
2018-10-07T17:00:03.090Z,2.57
2018-10-07T17:02:32.696Z,3.50
2018-10-07T17:05:02.767Z,3.10
2018-10-07T17:07:32.027Z,3.10
2018-10-07T17:10:01.309Z,2.90
2018-10-07T17:12:30.541Z,2.80
2018-10-07T17:14:59.780Z,2.87
2018-10-07T17:17:29.393Z,3.10
2018-10-07T17:19:58.801Z,2.90
2018-10-07T17:22:28.064Z,3.77
2018-10-07T17:24:57.300Z,3.57
2018-10-07T17:27:26.531Z,3.73
2018-10-07T17:29:55.808Z,3.70
2018-10-07T17:32:25.084Z,4.10
2018-10-07T17:34:54.333Z,4.20
2018-10-07T17:37:23.583Z,4.97
2018-10-07T17:39:52.984Z,5.63
2018-10-07T17:42:22.407Z,6.33
2018-10-07T17:44:51.706Z,5.23
2018-10-07T17:47:20.916Z,5.10
2018-10-07T17:49:50.294Z,6.50
2018-10-07T17:52:19.659Z,7.70
2018-10-07T17:54:49.071Z,8.57
2018-10-07T17:57:18.442Z,7.67
2018-10-07T17:59:48.276Z,4.83
2018-10-07T18:02:18.991Z,5.57
2018-10-07T18:04:48.336Z,3.40
2018-10-07T18:07:17.615Z,3.20
2018-10-07T18:09:46.833Z,4.10
2018-10-07T18:12:16.080Z,4.23
2018-10-07T18:14:46.428Z,7.73
2018-10-07T18:17:17.040Z,6.93
2018-10-07T18:19:47.008Z,7.47
2018-10-07T18:22:16.249Z,7.73
2018-10-07T18:24:45.516Z,7.40
2018-10-07T18:27:14.883Z,7.30
2018-10-07T18:29:44.236Z,6.90
2018-10-07T18:32:13.635Z,5.90
2018-10-07T18:34:42.883Z,6.57
2018-10-07T18:37:12.100Z,7.13
2018-10-07T18:39:41.542Z,7.70
2018-10-07T18:42:11.213Z,7.20
2018-10-07T18:44:41.135Z,6.73
2018-10-07T18:47:10.375Z,5.33
2018-10-07T18:49:39.847Z,5.47
2018-10-07T18:52:10.258Z,4.93
2018-10-07T18:54:39.680Z,5.63
2018-10-07T18:57:09.713Z,5.27
2018-10-07T18:59:38.996Z,4.83
2018-10-07T19:02:08.561Z,4.93
2018-10-07T19:04:38.698Z,4.80
2018-10-07T19:07:08.101Z,4.70
2018-10-07T19:09:37.472Z,4.50
2018-10-07T19:12:07.294Z,5.63
2018-10-07T19:14:36.656Z,5.40
2018-10-07T19:17:06.153Z,5.53
2018-10-07T19:19:35.580Z,5.67
2018-10-07T19:22:04.993Z,10.30
2018-10-07T19:24:34.409Z,8.50
2018-10-07T19:27:03.872Z,6.93
2018-10-07T19:29:33.519Z,7.10
2018-10-07T19:32:02.861Z,7.47
2018-10-07T19:34:32.308Z,7.40
2018-10-07T19:37:01.940Z,7.60
2018-10-07T19:39:32.158Z,7.23
2018-10-07T19:42:01.551Z,7.10
2018-10-07T19:44:30.892Z,6.97
2018-10-07T19:47:00.238Z,6.47
2018-10-07T19:49:29.457Z,7.13
2018-10-07T19:51:58.859Z,6.80
2018-10-07T19:54:28.594Z,6.10
2018-10-07T19:56:57.863Z,6.20
2018-10-07T19:59:27.252Z,5.93
2018-10-07T20:01:56.584Z,6.00
2018-10-07T20:04:25.931Z,5.07
2018-10-07T20:06:55.281Z,4.97
2018-10-07T20:09:24.786Z,4.80
2018-10-07T20:11:54.100Z,3.83
2018-10-07T20:14:24.185Z,3.80
2018-10-07T20:16:53.448Z,3.50
2018-10-07T20:19:22.905Z,3.23
2018-10-07T20:21:52.374Z,3.67
2018-10-07T20:24:22.042Z,4.90
2018-10-07T20:26:51.566Z,6.00
2018-10-07T20:29:21.036Z,3.83
2018-10-07T20:31:50.389Z,3.87
2018-10-07T20:34:19.608Z,4.80
2018-10-07T20:36:48.816Z,4.30
2018-10-07T20:39:18.028Z,3.30
2018-10-07T20:41:47.471Z,3.90
2018-10-07T20:44:16.724Z,4.80
2018-10-07T20:46:45.994Z,4.30
2018-10-07T20:49:15.224Z,3.80
2018-10-07T20:51:44.482Z,3.00
2018-10-07T20:54:13.708Z,3.80
2018-10-07T20:56:42.940Z,3.33
2018-10-07T20:59:12.172Z,3.23
2018-10-07T21:01:41.407Z,2.70
2018-10-07T21:04:11.387Z,2.93
2018-10-07T21:06:40.620Z,2.77
2018-10-07T21:09:12.266Z,2.53
2018-10-07T21:11:41.473Z,2.70
2018-10-07T21:14:10.696Z,2.50
2018-10-07T21:16:40.160Z,2.50
2018-10-07T21:19:09.403Z,3.30
2018-10-07T21:21:38.643Z,2.60
2018-10-07T21:24:07.932Z,2.60
2018-10-07T21:26:37.129Z,2.60
2018-10-07T21:29:06.384Z,2.90
2018-10-07T21:31:35.613Z,3.17
2018-10-07T21:34:04.859Z,3.00
2018-10-07T21:36:34.094Z,3.17
2018-10-07T21:39:05.197Z,2.90
2018-10-07T21:41:34.579Z,3.00
2018-10-07T21:44:03.739Z,3.73
2018-10-07T21:46:33.009Z,3.90
2018-10-07T21:49:03.017Z,3.90
2018-10-07T21:51:32.252Z,3.73
2018-10-07T21:54:01.527Z,4.20
2018-10-07T21:56:30.785Z,4.10
2018-10-07T21:59:00.074Z,4.80
2018-10-07T22:01:29.904Z,4.70
2018-10-07T22:03:59.194Z,4.43
2018-10-07T22:06:28.561Z,4.17
2018-10-07T22:08:57.781Z,4.07
2018-10-07T22:11:27.031Z,4.27
2018-10-07T22:13:56.274Z,4.80
2018-10-07T22:16:25.545Z,4.57
2018-10-07T22:18:54.756Z,5.30
2018-10-07T22:21:24.168Z,4.87
2018-10-07T22:23:53.514Z,4.47
2018-10-07T22:26:22.734Z,4.60
2018-10-07T22:28:52.024Z,4.50
2018-10-07T22:31:21.243Z,4.50
2018-10-07T22:33:51.273Z,4.00
2018-10-07T22:36:20.499Z,4.40
2018-10-07T22:38:49.805Z,4.50
2018-10-07T22:41:19.050Z,4.20
2018-10-07T22:43:48.308Z,3.73
2018-10-07T22:46:18.260Z,3.93
2018-10-07T22:48:47.475Z,3.87
2018-10-07T22:51:16.696Z,3.77
2018-10-07T22:53:46.134Z,4.03
2018-10-07T22:56:16.016Z,3.63
2018-10-07T22:58:45.248Z,3.73
2018-10-07T23:01:14.518Z,4.10
2018-10-07T23:03:43.760Z,3.90
2018-10-07T23:06:13.008Z,4.27
2018-10-07T23:08:42.832Z,5.10
2018-10-07T23:11:12.180Z,5.30
2018-10-07T23:13:41.496Z,5.27
2018-10-07T23:16:10.721Z,5.20
2018-10-07T23:18:39.973Z,5.43
2018-10-07T23:21:09.209Z,5.47
2018-10-07T23:23:38.426Z,5.30
2018-10-07T23:26:07.648Z,4.50
2018-10-07T23:28:36.908Z,4.37
2018-10-07T23:31:06.936Z,4.70
2018-10-07T23:33:36.308Z,5.17
2018-10-07T23:36:05.545Z,4.90
2018-10-07T23:38:34.764Z,4.80
2018-10-07T23:41:04.054Z,4.93
2018-10-07T23:43:33.305Z,4.43
2018-10-07T23:46:02.759Z,4.47
2018-10-07T23:48:31.999Z,5.60
2018-10-07T23:51:01.333Z,4.70
2018-10-07T23:53:30.608Z,4.90
2018-10-07T23:55:59.832Z,4.50
2018-10-07T23:58:29.085Z,4.70
